Main page
Satellite images 15-day forecastsClimateMarine weather Cyclones Lightning AirportsFAQ Newsletter About
Weather : Europe Africa North America South America Asia Australia-Oceania Others
Languages Contact

Longyearbyen, Norway

Svalbard

latitude: 78-15N, longitude: 015-28E, elevation: 2 m


METAR: ENSB 010750Z 10009KT 9999 FEW020 SCT140 M07/M10 Q1015 NOSIG RMK WIND 1400FT 12011KT
TAF: ENSB 0106/0206 12012KT 9999 FEW012 SCT030 TEMPO 0115/0206 2000 SN VV008

Time: 10:10 (08:10 UTC)

Current weather observation

The report was made 20 minutes ago, at 07:50 UTC  
Wind 09 kt from the East
Temperature -7°C
Humidity 79%
Pressure 1015 hPa
Visibility 10 km or more
Few clouds at a height of 2000 ft
Scattered clouds at a height of 14000 ft

Change units

Forecast

Forecast valid from 01 at 06 UTC to 02 at 06 UTC
Wind 12 kt from the East/Southeast
Visibility 10 km or more
Few clouds at a height of 1200 ft
Scattered clouds at a height of 3000 ft
Temporary
from 01 at 15 UTC to 02 at 06 UTC
Visibility 2000 m
at a height of 800 ft
snow
The information on this site is subject to a disclaimer
Weather : Europe Africa North America South America Asia Australia-Oceania Others
Satellite images 15-day forecastsClimateMarine weather Cyclones Lightning AirportsFAQ Languages Contact Newsletter About